航空気象通報

ウインドサーファーのための航空気象通報による風予報です。

3/7-3/9の航空気象通報

2017年03月07日 23時32分27秒 | TAF
羽田空港
TAF RJTT 071105Z 0712/0818 34016KT 9999 FEW030
BECMG 0715/0717 27005KT
BECMG 0800/0803 18010KT
BECMG 0806/0809 33012KT
日本時間7日21-24時:340度から16ノットの風
8日00-02時:風が変化
02-09時:270度から5ノットの風
09-12時:風が変化
12-15時:180度から10ノットの風
15-18時:風が変化
18時-9日03時:330度から12ノットの風


静岡空港
TAF RJNS 071106Z 0712/0818 26012KT 9999 FEW030
TEMPO 0800/0809 26022G32KT
日本時間7日21時-9日03時:260度から12ノットの風
但し、8日09-18時の間:ときどき260度から22ノット、突風32ノット


福岡空港
TAF RJFF 071106Z 0712/0818 29010KT 9999 FEW030 BKN040
TEMPO 0803/0809 28015G25KT
日本時間7日21時-9日03時:290度から10ノットの風
但し、8日12-18時の間:ときどき280度から15ノット、突風25ノット


那覇空港
TAF ROAH 071105Z 0712/0818 02008KT 9999 FEW035 SCT045
日本時間7日21時-9日03時:020度から8ノットの風


石垣空港
TAF ROIG 071108Z 0712/0818 02010KT 9999 FEW030 SCT045
日本時間7日21時-9日03時:020度から10ノットの風


マウイのカフルイ空港
PHOG 071342Z 0714/0812 VRB05KT P6SM VCSH SCT025 BKN045
TEMPO 0714/0716 5SM -SHRA BR BKN015
FM072000 02009KT P6SM VCSH SCT025 BKN045
FM080000 02009KT P6SM VCSH SCT025 BKN040
FM080500 VRB05KT P6SM VCSH SCT025 BKN040 AMD LTD TO VIS AND WIND TIL 071600
ハワイ時間7日04-10時:風向不定5ノットの風
10-19時:020度から9ノットの風
19時-8日02時:風向不定5ノットの風

但し、7日04-06時の間:ときどき

サイパン空港
TAF PGSN 071120Z 0712/0812 11010KT P6SM VCSH FEW018 SCT040 BKN120
FM072300 11014G20KT P6SM VCSH FEW018 SCT050 SCT120
マリアナ時間7日22時-8日09時:110度から10ノットの風

09-22時:110度から14ノット、突風20ノット
ジャンル:
お天気
コメント   この記事についてブログを書く
この記事をはてなブックマークに追加
« 3/6-3/8の航空気象通報 | トップ | 3/8-3/10の航空気象通報 »
最近の画像もっと見る

コメントを投稿

ブログ作成者から承認されるまでコメントは反映されません。

TAF」カテゴリの最新記事